Time;durP1;ratioP1;P1;durP2;ratioP2;P2;SDS_P1;SDS_P2;PMS_P1;PMS_P2;Temp;Humidity;BMP_temperature;BMP_pressure;BME280_temperature;BME280_humidity;BME280_pressure;Samples;Min_cycle;Max_cycle;Signal;HPM_P1;HPM_P2
2024/02/09 00:00:52;;;;;;;1.00;1.00;;;-15.60;99.90;;;;;;5095782;28;20192;-68
2024/02/09 00:03:21;;;;;;;1.00;1.00;;;-15.50;99.90;;;;;;5114075;28;20229;-68
2024/02/09 00:05:54;;;;;;;1.47;1.37;;;-15.50;99.90;;;;;;5093459;28;20211;-68
2024/02/09 00:08:21;;;;;;;1.10;1.10;;;-15.60;99.90;;;;;;5108821;28;20684;-68
2024/02/09 00:10:55;;;;;;;0.90;0.90;;;-15.80;99.90;;;;;;5090742;28;20196;-68
2024/02/09 00:16:42;;;;;;;1.00;1.00;;;-15.90;99.90;;;;;;5092043;28;20218;-68
2024/02/09 00:19:12;;;;;;;0.90;0.90;;;-15.90;99.90;;;;;;5090570;28;20185;-69
2024/02/09 00:21:40;;;;;;;1.00;1.00;;;-15.90;99.90;;;;;;5093113;28;20679;-68
2024/02/09 00:24:08;;;;;;;0.97;0.97;;;-15.90;99.90;;;;;;5093174;28;20546;-71
2024/02/09 00:26:37;;;;;;;1.00;1.00;;;-15.90;99.90;;;;;;5092927;28;20207;-71
2024/02/09 00:29:09;;;;;;;1.00;1.00;;;-15.90;99.90;;;;;;5093159;28;20242;-71
2024/02/09 00:31:37;;;;;;;0.93;0.93;;;-16.00;99.90;;;;;;5091004;28;20204;-72
2024/02/09 00:34:10;;;;;;;1.00;1.00;;;-16.00;99.90;;;;;;5092971;28;20211;-72
2024/02/09 00:36:44;;;;;;;0.90;0.90;;;-15.90;99.90;;;;;;5088431;28;20283;-71
2024/02/09 00:39:09;;;;;;;1.00;1.00;;;-15.90;99.90;;;;;;5090363;28;20191;-72
2024/02/09 00:41:35;;;;;;;0.90;0.90;;;-15.90;99.90;;;;;;5092687;28;20196;-72
2024/02/09 00:44:01;;;;;;;0.90;0.90;;;-15.80;99.90;;;;;;5074789;28;20273;-72
2024/02/09 00:46:28;;;;;;;1.00;1.00;;;-15.80;99.90;;;;;;5092623;28;20223;-72
2024/02/09 00:48:53;;;;;;;1.20;1.20;;;-15.90;99.90;;;;;;5091216;28;20271;-72
2024/02/09 00:51:19;;;;;;;0.97;0.97;;;-16.00;99.90;;;;;;5092825;28;20295;-71
2024/02/09 00:53:48;;;;;;;1.00;1.00;;;-16.00;99.90;;;;;;5074200;28;20208;-71
2024/02/09 00:56:14;;;;;;;0.93;0.93;;;-16.00;99.90;;;;;;5092698;28;20624;-71
2024/02/09 00:58:39;;;;;;;0.90;0.90;;;-16.00;99.90;;;;;;5092544;28;20228;-72
2024/02/09 01:01:09;;;;;;;0.87;0.87;;;-16.10;99.90;;;;;;5092557;28;20353;-71
2024/02/09 01:03:36;;;;;;;0.90;0.90;;;-16.00;99.90;;;;;;5092436;28;20220;-71
2024/02/09 01:06:06;;;;;;;0.97;0.97;;;-16.00;99.90;;;;;;5089430;28;20201;-71
2024/02/09 01:08:32;;;;;;;0.97;0.97;;;-15.90;99.90;;;;;;5095602;28;20683;-71
2024/02/09 01:10:57;;;;;;;0.90;0.90;;;-15.80;99.90;;;;;;5112941;28;20244;-72
2024/02/09 02:46:25;;;;;;;1.00;1.00;;;-15.70;99.90;;;;;;5115944;28;20192;-71
2024/02/09 03:05:30;;;;;;;1.00;1.00;;;-15.70;99.90;;;;;;5115307;28;20621;-71
2024/02/09 03:07:56;;;;;;;1.27;1.27;;;-15.80;99.90;;;;;;5115047;28;20227;-72
2024/02/09 03:10:23;;;;;;;1.00;1.00;;;-15.70;99.90;;;;;;5096655;28;20319;-72
2024/02/09 03:12:50;;;;;;;1.00;1.00;;;-15.70;99.90;;;;;;5115007;28;20199;-72
2024/02/09 03:15:18;;;;;;;1.10;1.10;;;-15.70;99.90;;;;;;5115514;28;20192;-72
2024/02/09 03:17:45;;;;;;;1.00;1.00;;;-15.60;99.90;;;;;;5114930;28;20256;-72
2024/02/09 03:20:11;;;;;;;0.90;0.90;;;-15.50;99.90;;;;;;5112200;28;20196;-71
2024/02/09 03:22:37;;;;;;;1.00;1.00;;;-15.50;99.90;;;;;;5115145;28;20214;-72
2024/02/09 03:25:04;;;;;;;0.80;0.80;;;-15.40;99.90;;;;;;5114934;28;20284;-71
2024/02/09 03:27:34;;;;;;;0.90;0.90;;;-15.40;99.90;;;;;;5111925;28;20192;-72
2024/02/09 03:30:01;;;;;;;1.00;1.00;;;-15.40;99.90;;;;;;5114739;28;20192;-72
2024/02/09 03:32:28;;;;;;;0.90;0.90;;;-15.40;99.90;;;;;;5114485;28;20192;-71
2024/02/09 03:34:54;;;;;;;1.00;1.00;;;-15.40;99.90;;;;;;5114611;28;20238;-72
2024/02/09 03:37:26;;;;;;;1.00;1.00;;;-15.40;99.90;;;;;;5114442;28;20194;-71
2024/02/09 03:39:57;;;;;;;1.00;1.00;;;-15.50;99.90;;;;;;5114561;28;20184;-71
2024/02/09 03:42:23;;;;;;;0.90;0.90;;;-15.50;99.90;;;;;;5114445;28;20659;-71
2024/02/09 03:44:55;;;;;;;1.00;1.00;;;-15.60;99.90;;;;;;5114420;28;20715;-71
2024/02/09 03:47:24;;;;;;;1.00;1.00;;;-15.60;99.90;;;;;;5114243;28;20196;-70
2024/02/09 03:49:54;;;;;;;1.00;1.00;;;-15.70;99.90;;;;;;5114720;28;20192;-70
2024/02/09 03:52:21;;;;;;;0.90;0.90;;;-15.80;99.90;;;;;;5114914;28;20721;-69
2024/02/09 03:54:54;;;;;;;1.00;1.00;;;-15.80;99.90;;;;;;5096974;28;20200;-68
2024/02/09 03:57:21;;;;;;;0.90;0.90;;;-15.90;99.90;;;;;;5114078;28;20508;-68
2024/02/09 03:59:47;;;;;;;1.00;1.00;;;-15.90;99.90;;;;;;5114154;28;20549;-68
2024/02/09 04:02:13;;;;;;;1.00;1.00;;;-16.00;99.90;;;;;;5094784;28;20195;-68
2024/02/09 04:04:39;;;;;;;0.90;0.90;;;-16.00;99.90;;;;;;5113816;28;20539;-67
2024/02/09 04:07:05;;;;;;;0.90;0.90;;;-15.90;99.90;;;;;;5114082;28;20666;-68
2024/02/09 04:09:33;;;;;;;1.00;1.00;;;-15.90;99.90;;;;;;5110733;28;20695;-68
2024/02/09 04:11:59;;;;;;;1.00;1.00;;;-15.90;99.90;;;;;;5113982;28;20549;-68
2024/02/09 04:14:24;;;;;;;1.00;1.00;;;-15.90;99.90;;;;;;5113674;28;20200;-68
2024/02/09 04:16:50;;;;;;;0.93;0.93;;;-15.90;99.90;;;;;;5113853;28;20183;-67
2024/02/09 04:19:17;;;;;;;0.97;0.97;;;-15.90;99.90;;;;;;5113671;28;20194;-68
2024/02/09 04:21:47;;;;;;;0.97;0.97;;;-15.90;99.90;;;;;;5113604;28;20516;-68
2024/02/09 04:24:25;;;;;;;1.00;1.00;;;-15.90;99.90;;;;;;5111126;28;20679;-68
2024/02/09 04:26:52;;;;;;;0.90;0.90;;;-15.90;99.90;;;;;;5110768;28;20211;-68
2024/02/09 04:29:18;;;;;;;0.93;0.93;;;-15.80;99.90;;;;;;5094607;28;20195;-68
2024/02/09 04:31:45;;;;;;;0.90;0.90;;;-15.80;99.90;;;;;;5113550;28;20199;-68
2024/02/09 04:34:11;;;;;;;1.00;1.00;;;-15.80;99.90;;;;;;5112492;28;20735;-68
2024/02/09 04:36:41;;;;;;;4.20;3.53;;;-15.70;99.90;;;;;;5113245;28;20274;-68
2024/02/09 04:39:10;;;;;;;1.00;1.00;;;-15.70;99.90;;;;;;5113404;28;20199;-68
2024/02/09 04:41:45;;;;;;;1.00;1.00;;;-15.70;99.90;;;;;;5113179;28;20270;-68
2024/02/09 04:44:11;;;;;;;0.90;0.90;;;-15.70;99.90;;;;;;5110542;28;20601;-68
2024/02/09 04:46:39;;;;;;;1.00;1.00;;;-15.60;99.90;;;;;;5113085;28;20199;-68
2024/02/09 04:49:07;;;;;;;1.00;1.00;;;-15.50;99.90;;;;;;5093933;28;20201;-68
2024/02/09 04:51:43;;;;;;;0.90;0.90;;;-15.40;99.90;;;;;;5108317;28;20256;-68
2024/02/09 04:54:09;;;;;;;1.00;1.00;;;-15.40;99.90;;;;;;5112895;28;20210;-68
2024/02/09 04:56:35;;;;;;;1.00;1.00;;;-15.40;99.90;;;;;;5113342;28;20703;-68
2024/02/09 04:59:10;;;;;;;1.00;1.00;;;-15.40;99.90;;;;;;5113237;28;20560;-68
2024/02/09 05:01:40;;;;;;;0.90;0.90;;;-15.30;99.90;;;;;;5113176;28;20194;-68
2024/02/09 05:04:28;;;;;;;1.00;1.00;;;-15.30;99.90;;;;;;5113372;28;20203;-68
2024/02/09 05:06:53;;;;;;;0.90;0.90;;;-15.20;99.90;;;;;;5111506;28;20207;-69
2024/02/09 05:09:23;;;;;;;1.00;1.00;;;-15.20;99.90;;;;;;5113400;28;20569;-68
2024/02/09 05:11:49;;;;;;;0.90;0.90;;;-15.10;99.90;;;;;;5113314;28;20555;-68
2024/02/09 05:14:16;;;;;;;0.93;0.93;;;-15.10;99.90;;;;;;5113013;28;20213;-69
2024/02/09 05:16:41;;;;;;;1.00;1.00;;;-15.00;99.90;;;;;;5113312;28;20279;-68
2024/02/09 05:19:10;;;;;;;1.00;1.00;;;-15.00;99.90;;;;;;5113095;28;20222;-69
2024/02/09 05:21:36;;;;;;;1.00;1.00;;;-15.00;99.90;;;;;;5112773;28;20211;-68
2024/02/09 05:24:03;;;;;;;0.90;0.90;;;-15.00;99.90;;;;;;5094646;28;20199;-68
2024/02/09 05:26:30;;;;;;;1.00;1.00;;;-15.00;99.90;;;;;;5112805;28;20220;-68
2024/02/09 05:28:55;;;;;;;1.00;1.00;;;-14.90;99.90;;;;;;5112485;28;20191;-69
2024/02/09 05:31:25;;;;;;;0.90;0.90;;;-14.90;99.90;;;;;;5112769;28;20192;-69
2024/02/09 05:33:52;;;;;;;0.90;0.90;;;-15.00;99.90;;;;;;5094254;28;20203;-69
2024/02/09 05:36:24;;;;;;;1.00;1.00;;;-15.10;99.90;;;;;;5112952;28;20215;-68
2024/02/09 05:38:52;;;;;;;0.90;0.90;;;-15.10;99.90;;;;;;5112839;28;20212;-68
2024/02/09 05:41:19;;;;;;;0.93;0.93;;;-15.20;99.90;;;;;;5111858;28;20678;-69
2024/02/09 05:43:48;;;;;;;1.00;1.00;;;-15.20;99.90;;;;;;5112805;28;20188;-68
2024/02/09 05:46:15;;;;;;;1.10;1.10;;;-15.30;99.90;;;;;;5110916;28;20206;-68
2024/02/09 05:48:44;;;;;;;1.00;1.00;;;-15.30;99.90;;;;;;5112565;28;20555;-69
2024/02/09 05:51:18;;;;;;;1.50;1.40;;;-15.40;99.90;;;;;;5112777;28;20324;-68
2024/02/09 05:53:46;;;;;;;2.27;2.07;;;-15.40;99.90;;;;;;5112495;28;20199;-69
2024/02/09 05:56:21;;;;;;;1.00;1.00;;;-15.50;99.90;;;;;;5112796;28;20655;-69
2024/02/09 05:58:57;;;;;;;0.93;0.93;;;-15.50;99.90;;;;;;5112718;28;20236;-69
2024/02/09 06:01:32;;;;;;;0.90;0.90;;;-15.60;99.90;;;;;;5112526;28;20194;-68
2024/02/09 06:03:58;;;;;;;0.93;0.93;;;-15.60;99.90;;;;;;5112520;28;20210;-68
2024/02/09 06:06:24;;;;;;;1.00;1.00;;;-15.70;99.90;;;;;;5112408;28;20719;-69
2024/02/09 06:08:50;;;;;;;1.00;1.00;;;-15.60;99.90;;;;;;5112347;28;20302;-69
2024/02/09 06:11:17;;;;;;;1.00;1.00;;;-15.70;99.90;;;;;;5094396;28;20286;-68
2024/02/09 06:13:46;;;;;;;0.90;0.90;;;-15.70;99.90;;;;;;5112251;28;20262;-68
2024/02/09 06:16:15;;;;;;;0.90;0.90;;;-15.80;99.90;;;;;;5112752;28;20215;-69
2024/02/09 06:18:45;;;;;;;0.90;0.90;;;-15.80;99.90;;;;;;5112393;28;20191;-68
2024/02/09 06:21:13;;;;;;;0.97;0.97;;;-15.80;99.90;;;;;;5112169;28;20637;-68
2024/02/09 06:23:40;;;;;;;1.00;1.00;;;-15.80;99.90;;;;;;5112344;28;20199;-68
2024/02/09 06:26:08;;;;;;;1.00;1.00;;;-15.80;99.90;;;;;;5112316;28;20235;-68
2024/02/09 06:28:34;;;;;;;3.00;2.80;;;-15.70;99.90;;;;;;5112193;28;20606;-68
2024/02/09 06:31:00;;;;;;;1.00;1.00;;;-15.60;99.90;;;;;;5112497;28;20195;-68
2024/02/09 06:33:26;;;;;;;1.00;1.00;;;-15.50;99.90;;;;;;5111962;28;20554;-68
2024/02/09 06:35:51;;;;;;;1.00;1.00;;;-15.50;99.90;;;;;;5112342;28;20191;-69
2024/02/09 06:38:17;;;;;;;0.90;0.90;;;-15.50;99.90;;;;;;5094234;28;20249;-69
2024/02/09 06:40:43;;;;;;;0.97;0.97;;;-15.40;99.90;;;;;;5094066;28;20218;-69
2024/02/09 06:43:09;;;;;;;0.90;0.90;;;-15.40;99.90;;;;;;5111922;28;20203;-68
2024/02/09 06:45:35;;;;;;;1.00;1.00;;;-15.40;99.90;;;;;;5112061;28;20191;-69
2024/02/09 06:48:03;;;;;;;1.00;1.00;;;-15.40;99.90;;;;;;5112303;28;20187;-69
2024/02/09 06:50:29;;;;;;;0.90;0.90;;;-15.40;99.90;;;;;;5112146;28;20245;-68
2024/02/09 06:52:55;;;;;;;0.90;0.90;;;-15.50;99.90;;;;;;5114824;28;20179;-68
2024/02/09 06:55:22;;;;;;;0.93;0.93;;;-15.50;99.90;;;;;;5115716;28;20190;-69
2024/02/09 06:57:48;;;;;;;1.00;1.00;;;-15.50;99.90;;;;;;5097519;28;20226;-69
2024/02/09 07:00:15;;;;;;;1.00;1.00;;;-15.60;99.90;;;;;;5115733;28;20282;-69
2024/02/09 07:02:41;;;;;;;1.00;1.00;;;-15.50;99.90;;;;;;5115564;28;20561;-69
2024/02/09 07:05:10;;;;;;;1.00;1.00;;;-15.50;99.90;;;;;;5115709;28;20255;-69
2024/02/09 07:07:43;;;;;;;0.97;0.97;;;-15.50;99.90;;;;;;5115099;28;20183;-69
2024/02/09 07:10:13;;;;;;;0.80;0.80;;;-15.60;99.90;;;;;;5115456;28;20246;-69
2024/02/09 07:12:42;;;;;;;1.03;1.03;;;-15.60;99.90;;;;;;5115151;28;20370;-68
2024/02/09 07:15:09;;;;;;;1.17;1.17;;;-15.60;99.90;;;;;;5115105;28;20214;-68
2024/02/09 07:17:35;;;;;;;1.03;1.03;;;-15.60;99.90;;;;;;5115185;28;20768;-69
2024/02/09 07:20:03;;;;;;;1.00;1.00;;;-15.60;99.90;;;;;;5115039;28;20184;-68
2024/02/09 07:22:30;;;;;;;1.00;1.00;;;-15.70;99.90;;;;;;5115309;28;20539;-69
2024/02/09 07:25:07;;;;;;;1.00;1.00;;;-15.80;99.90;;;;;;5116239;28;20256;-68
2024/02/09 07:27:32;;;;;;;1.00;1.00;;;-15.70;99.90;;;;;;5115149;28;20187;-68
2024/02/09 07:29:59;;;;;;;1.00;1.00;;;-15.70;99.90;;;;;;5115315;28;20184;-68
2024/02/09 07:32:24;;;;;;;0.97;0.97;;;-15.70;99.90;;;;;;5115005;28;20614;-68
2024/02/09 07:34:52;;;;;;;0.93;0.93;;;-15.70;99.90;;;;;;5114971;28;20211;-67
2024/02/09 07:37:19;;;;;;;0.87;0.87;;;-15.70;99.90;;;;;;5115040;28;20595;-68
2024/02/09 07:39:44;;;;;;;0.90;0.90;;;-15.80;99.90;;;;;;5113091;28;20776;-68
2024/02/09 07:42:11;;;;;;;0.93;0.93;;;-15.70;99.90;;;;;;5114959;28;20187;-68
2024/02/09 07:44:37;;;;;;;1.00;1.00;;;-15.70;99.90;;;;;;5114698;28;20291;-68
2024/02/09 07:47:06;;;;;;;1.00;1.00;;;-15.60;99.90;;;;;;5101034;28;20228;-67
2024/02/09 07:49:33;;;;;;;1.00;1.00;;;-15.60;99.90;;;;;;5094365;28;20195;-67
2024/02/09 07:51:59;;;;;;;0.90;0.90;;;-15.60;99.90;;;;;;5094430;28;20241;-67
2024/02/09 07:54:31;;;;;;;1.00;1.00;;;-15.50;99.90;;;;;;5075982;28;20552;-68
2024/02/09 07:56:57;;;;;;;1.00;1.00;;;-15.40;99.90;;;;;;5094385;28;20214;-67
2024/02/09 07:59:26;;;;;;;0.90;0.90;;;-15.30;99.90;;;;;;5094157;28;20674;-68
2024/02/09 08:01:52;;;;;;;0.90;0.90;;;-15.30;99.90;;;;;;5094164;28;20263;-68
2024/02/09 08:04:19;;;;;;;1.00;1.00;;;-15.20;99.90;;;;;;5093095;28;20193;-68
2024/02/09 08:06:45;;;;;;;1.00;1.00;;;-15.10;99.90;;;;;;5075732;28;20257;-68
2024/02/09 08:09:11;;;;;;;1.00;1.00;;;-15.10;99.90;;;;;;5082844;28;20232;-68
2024/02/09 08:11:38;;;;;;;1.00;1.00;;;-15.00;99.90;;;;;;5073610;28;20546;-68
2024/02/09 08:14:04;;;;;;;1.00;1.00;;;-14.90;99.90;;;;;;5073697;28;20220;-67
2024/02/09 08:16:30;;;;;;;1.00;1.00;;;-14.80;99.90;;;;;;5073492;28;20189;-68
2024/02/09 08:18:55;;;;;;;1.00;1.00;;;-14.70;99.90;;;;;;5090880;28;20220;-67
2024/02/09 08:21:22;;;;;;;1.00;1.00;;;-14.60;99.90;;;;;;5074557;28;20566;-67
2024/02/09 08:23:48;;;;;;;0.90;0.90;;;-14.50;99.90;;;;;;5073749;28;20204;-68
2024/02/09 08:26:13;;;;;;;1.00;1.00;;;-14.40;99.90;;;;;;5073532;28;20197;-67
2024/02/09 08:28:43;;;;;;;1.00;1.00;;;-14.20;99.90;;;;;;5073216;28;20215;-67
2024/02/09 08:31:13;;;;;;;0.90;0.90;;;-13.90;99.90;;;;;;5073283;28;20598;-68
2024/02/09 08:33:39;;;;;;;0.90;0.90;;;-13.70;99.90;;;;;;5073171;28;20227;-67
2024/02/09 08:36:06;;;;;;;0.90;0.90;;;-13.50;99.90;;;;;;5073258;28;20196;-68
2024/02/09 08:38:32;;;;;;;1.00;1.00;;;-13.30;99.90;;;;;;5072937;28;20199;-69
2024/02/09 08:40:58;;;;;;;1.00;1.00;;;-13.10;99.90;;;;;;5073246;28;20246;-69
2024/02/09 08:43:24;;;;;;;1.00;1.00;;;-13.00;99.90;;;;;;5072990;28;20284;-69
2024/02/09 08:45:50;;;;;;;1.00;1.00;;;-12.90;99.90;;;;;;5073177;28;20189;-69
2024/02/09 08:48:16;;;;;;;4.67;1.83;;;-12.70;99.90;;;;;;5073100;28;20199;-69
2024/02/09 08:50:44;;;;;;;1.00;1.00;;;-12.70;99.90;;;;;;5072910;28;20327;-68
2024/02/09 08:53:10;;;;;;;0.90;0.90;;;-12.60;99.90;;;;;;5072901;28;20193;-68
2024/02/09 08:55:35;;;;;;;0.90;0.90;;;-12.60;99.90;;;;;;5072821;28;20672;-68
2024/02/09 08:58:04;;;;;;;1.00;1.00;;;-12.50;99.90;;;;;;5072937;28;20195;-69
2024/02/09 09:00:30;;;;;;;1.00;1.00;;;-12.40;99.90;;;;;;5072771;28;20192;-68
2024/02/09 09:02:55;;;;;;;1.00;1.00;;;-12.30;99.90;;;;;;5072815;28;20211;-69
2024/02/09 09:05:23;;;;;;;1.00;1.00;;;-12.20;99.90;;;;;;5072600;28;20192;-69
2024/02/09 09:07:48;;;;;;;1.00;1.00;;;-12.20;99.90;;;;;;5072780;28;20467;-69
2024/02/09 09:10:14;;;;;;;1.10;1.10;;;-12.00;99.90;;;;;;5092593;28;20224;-69
2024/02/09 09:12:40;;;;;;;2.63;2.43;;;-11.50;99.90;;;;;;5092812;28;20204;-69
2024/02/09 09:15:06;;;;;;;1.10;1.10;;;-11.10;99.90;;;;;;5092914;28;20208;-69
2024/02/09 09:17:32;;;;;;;1.00;1.00;;;-10.80;99.90;;;;;;5091255;28;20566;-69
2024/02/09 09:19:58;;;;;;;1.00;1.00;;;-10.60;99.90;;;;;;5092694;28;20675;-69
2024/02/09 09:22:24;;;;;;;0.93;0.93;;;-10.50;99.90;;;;;;5093074;28;20200;-69
2024/02/09 09:24:50;;;;;;;1.00;1.00;;;-10.40;99.90;;;;;;5093043;28;20278;-69
2024/02/09 09:27:16;;;;;;;1.00;1.00;;;-10.20;99.90;;;;;;5092376;28;20661;-69
2024/02/09 09:29:42;;;;;;;0.93;0.93;;;-10.20;99.90;;;;;;5092602;28;20652;-69
2024/02/09 09:32:08;;;;;;;0.90;0.90;;;-10.10;99.90;;;;;;5093075;28;20275;-69
2024/02/09 09:34:33;;;;;;;1.00;1.00;;;-9.90;99.90;;;;;;5093172;28;20232;-69
2024/02/09 09:36:59;;;;;;;1.00;1.00;;;-10.10;99.90;;;;;;5093247;28;20184;-70
2024/02/09 09:39:25;;;;;;;1.00;1.00;;;-10.10;99.90;;;;;;5092541;28;20192;-69
2024/02/09 09:41:53;;;;;;;1.00;1.00;;;-9.80;99.90;;;;;;5091190;28;20202;-70
2024/02/09 09:44:24;;;;;;;1.00;1.00;;;-9.60;99.90;;;;;;5092521;28;20192;-70
2024/02/09 09:46:52;;;;;;;1.10;1.10;;;-9.40;99.90;;;;;;5091371;28;20214;-69
2024/02/09 09:49:18;;;;;;;1.27;1.27;;;-9.10;99.90;;;;;;5092302;28;20601;-69
2024/02/09 09:51:50;;;;;;;1.00;1.00;;;-8.70;99.90;;;;;;5092523;28;20200;-70
2024/02/09 09:54:21;;;;;;;1.00;1.00;;;-8.40;99.90;;;;;;5092377;28;20211;-70
2024/02/09 09:56:48;;;;;;;1.00;1.00;;;-8.30;99.90;;;;;;5092463;28;20188;-70
2024/02/09 09:59:13;;;;;;;1.00;1.00;;;-8.40;99.90;;;;;;5092349;28;20192;-70
2024/02/09 10:01:39;;;;;;;0.90;0.90;;;-8.70;99.90;;;;;;5092131;28;20537;-69
2024/02/09 10:04:05;;;;;;;0.90;0.90;;;-8.90;99.90;;;;;;5092414;28;20192;-69
2024/02/09 10:06:31;;;;;;;0.97;0.97;;;-8.80;99.90;;;;;;5092061;28;20192;-70
2024/02/09 10:08:57;;;;;;;1.00;1.00;;;-9.00;99.90;;;;;;5092139;28;20785;-69
2024/02/09 10:11:24;;;;;;;1.40;1.30;;;-9.00;99.90;;;;;;5092225;28;20643;-70
2024/02/09 10:13:53;;;;;;;1.10;1.10;;;-9.20;99.90;;;;;;5107010;28;20207;-70
2024/02/09 10:16:22;;;;;;;1.03;1.03;;;-9.40;99.90;;;;;;5112527;28;20647;-69
2024/02/09 10:18:48;;;;;;;1.10;1.10;;;-9.50;99.90;;;;;;5112666;28;20192;-70
2024/02/09 10:21:14;;;;;;;1.00;1.00;;;-9.50;99.90;;;;;;5112215;28;20705;-69
2024/02/09 10:23:40;;;;;;;1.00;1.00;;;-9.40;99.90;;;;;;5112345;28;21329;-69
2024/02/09 10:26:06;;;;;;;1.00;1.00;;;-9.40;99.90;;;;;;5111474;28;20481;-69
2024/02/09 10:28:33;;;;;;;1.40;1.30;;;-9.30;99.90;;;;;;5098916;28;20231;-69
2024/02/09 10:30:59;;;;;;;0.90;0.90;;;-9.20;99.90;;;;;;5096014;28;20723;-70
2024/02/09 10:33:26;;;;;;;0.90;0.90;;;-9.20;99.90;;;;;;5094416;28;20238;-70
2024/02/09 10:35:59;;;;;;;0.90;0.90;;;-9.20;99.90;;;;;;5095999;28;20181;-70
2024/02/09 10:38:26;;;;;;;1.00;1.00;;;-9.30;99.90;;;;;;5095841;28;20678;-71
2024/02/09 10:40:55;;;;;;;1.00;1.00;;;-9.20;99.90;;;;;;5095806;28;20184;-71
2024/02/09 10:43:27;;;;;;;1.53;1.47;;;-9.20;99.90;;;;;;5095896;28;20644;-70
2024/02/09 10:45:54;;;;;;;1.00;1.00;;;-9.40;99.90;;;;;;5095741;28;20185;-70
2024/02/09 10:48:36;;;;;;;1.00;1.00;;;-9.40;99.90;;;;;;5095460;28;20234;-70
2024/02/09 10:51:14;;;;;;;1.00;1.00;;;-9.30;99.90;;;;;;5095596;28;20222;-71
2024/02/09 10:53:51;;;;;;;1.00;1.00;;;-9.40;99.90;;;;;;5095390;28;20210;-71
2024/02/09 10:56:19;;;;;;;1.00;1.00;;;-9.30;99.90;;;;;;5094357;28;20663;-70
2024/02/09 10:58:45;;;;;;;1.00;1.00;;;-9.20;99.90;;;;;;5095511;28;20616;-70
2024/02/09 11:01:11;;;;;;;0.93;0.93;;;-9.10;99.90;;;;;;5095395;28;20220;-70
2024/02/09 11:03:38;;;;;;;0.90;0.90;;;-9.00;99.90;;;;;;5095124;28;20199;-70
2024/02/09 11:06:04;;;;;;;0.93;0.93;;;-9.00;99.90;;;;;;5095344;28;20192;-70
2024/02/09 11:08:33;;;;;;;1.00;1.00;;;-8.90;99.90;;;;;;5095152;28;20250;-70
2024/02/09 11:11:00;;;;;;;1.00;1.00;;;-8.90;99.90;;;;;;5115471;28;20280;-70
2024/02/09 11:13:26;;;;;;;0.90;0.90;;;-8.80;99.90;;;;;;5115378;28;20214;-70
2024/02/09 11:16:00;;;;;;;1.20;1.20;;;-8.80;99.90;;;;;;5115634;28;20191;-71
2024/02/09 11:18:32;;;;;;;1.00;1.00;;;-8.70;99.90;;;;;;5115334;28;20234;-70
2024/02/09 11:21:07;;;;;;;1.07;1.07;;;-8.80;99.90;;;;;;5115051;28;20649;-70
2024/02/09 11:23:40;;;;;;;0.90;0.90;;;-8.80;99.90;;;;;;5115714;28;20547;-70
2024/02/09 11:26:13;;;;;;;1.00;1.00;;;-8.80;99.90;;;;;;5115394;28;20202;-70
2024/02/09 11:28:40;;;;;;;0.90;0.90;;;-8.70;99.90;;;;;;5096761;28;20204;-70
2024/02/09 11:31:13;;;;;;;1.10;1.10;;;-8.70;99.90;;;;;;5094800;28;20244;-70
2024/02/09 11:33:41;;;;;;;1.00;1.00;;;-8.70;99.90;;;;;;5094601;28;20703;-70
2024/02/09 11:36:07;;;;;;;0.90;0.90;;;-8.80;99.90;;;;;;5094743;28;20697;-70
2024/02/09 11:38:33;;;;;;;1.00;1.00;;;-8.80;99.90;;;;;;5094469;28;20230;-70
2024/02/09 11:40:59;;;;;;;0.90;0.90;;;-8.60;99.90;;;;;;5094673;28;20203;-70
2024/02/09 11:43:25;;;;;;;1.07;1.07;;;-8.50;99.90;;;;;;5094507;28;20188;-70
2024/02/09 11:45:53;;;;;;;1.00;1.00;;;-8.30;99.90;;;;;;5094634;28;20195;-69
2024/02/09 11:48:23;;;;;;;0.93;0.93;;;-8.20;99.90;;;;;;5094510;28;20192;-70
2024/02/09 11:50:49;;;;;;;0.90;0.90;;;-8.10;99.90;;;;;;5094447;28;20656;-70
2024/02/09 11:53:15;;;;;;;1.00;1.00;;;-8.10;99.90;;;;;;5094329;28;20207;-70
2024/02/09 11:55:42;;;;;;;1.43;1.33;;;-8.10;99.90;;;;;;5094277;28;20192;-71
2024/02/09 11:58:12;;;;;;;1.00;1.00;;;-8.00;99.90;;;;;;5094412;28;20218;-70
2024/02/09 12:00:40;;;;;;;0.90;0.90;;;-7.80;99.90;;;;;;5094406;28;20275;-70
2024/02/09 12:03:06;;;;;;;0.90;0.90;;;-7.80;99.90;;;;;;5094309;28;20184;-70
2024/02/09 12:05:32;;;;;;;1.00;1.00;;;-7.70;99.90;;;;;;5102218;28;20754;-65
2024/02/09 12:07:58;;;;;;;0.90;0.90;;;-7.50;99.90;;;;;;5113176;28;20191;-65
2024/02/09 12:10:23;;;;;;;3.00;2.70;;;-7.50;99.90;;;;;;5112929;28;20252;-65
2024/02/09 12:12:49;;;;;;;0.90;0.90;;;-7.40;99.90;;;;;;5114284;28;20633;-65
2024/02/09 12:15:19;;;;;;;1.00;1.00;;;-7.40;99.90;;;;;;5114390;28;20588;-65
2024/02/09 12:17:45;;;;;;;1.00;1.00;;;-7.40;99.90;;;;;;5114435;28;20275;-65
2024/02/09 12:20:13;;;;;;;0.90;0.90;;;-7.40;99.90;;;;;;5114064;28;20670;-65
2024/02/09 12:22:40;;;;;;;0.90;0.90;;;-7.40;99.90;;;;;;5113004;28;20256;-65
2024/02/09 12:25:09;;;;;;;0.90;0.90;;;-7.40;99.90;;;;;;5114187;28;20199;-65
2024/02/09 12:27:35;;;;;;;1.00;1.00;;;-7.40;99.90;;;;;;5113941;28;20206;-65
2024/02/09 12:30:11;;;;;;;1.10;1.10;;;-7.40;99.90;;;;;;5114133;28;20192;-64
2024/02/09 12:32:37;;;;;;;1.00;1.00;;;-7.30;99.90;;;;;;5113981;28;20203;-65
2024/02/09 12:35:03;;;;;;;2.93;2.43;;;-7.30;99.90;;;;;;5114040;28;20238;-65
2024/02/09 12:37:29;;;;;;;0.90;0.90;;;-7.30;99.90;;;;;;5113864;28;20203;-65
2024/02/09 12:39:55;;;;;;;0.80;0.80;;;-7.30;99.90;;;;;;5114089;28;20195;-65
2024/02/09 12:42:22;;;;;;;1.00;1.00;;;-7.40;99.90;;;;;;5113713;28;20678;-65
2024/02/09 12:44:51;;;;;;;3.07;2.13;;;-7.40;99.90;;;;;;5113923;28;20191;-66
2024/02/09 12:47:17;;;;;;;1.00;1.00;;;-7.40;99.90;;;;;;5113945;28;20199;-67
2024/02/09 12:49:43;;;;;;;0.90;0.90;;;-7.30;99.90;;;;;;5111841;28;20212;-65
2024/02/09 12:52:14;;;;;;;1.40;1.30;;;-7.30;99.90;;;;;;5113786;28;20200;-65
2024/02/09 12:54:42;;;;;;;0.90;0.90;;;-7.30;99.90;;;;;;5113482;28;20260;-66
2024/02/09 12:57:08;;;;;;;0.90;0.90;;;-7.40;99.90;;;;;;5113668;28;20199;-65
2024/02/09 12:59:34;;;;;;;1.00;1.00;;;-7.40;99.90;;;;;;5112047;28;20203;-65
2024/02/09 13:02:07;;;;;;;1.00;1.00;;;-7.30;99.90;;;;;;5112002;28;20509;-65
2024/02/09 13:04:39;;;;;;;0.90;0.90;;;-7.20;99.90;;;;;;5113404;28;20270;-65
2024/02/09 13:07:06;;;;;;;1.00;1.00;;;-7.10;99.90;;;;;;5113523;28;20195;-65
2024/02/09 13:09:35;;;;;;;0.90;0.90;;;-7.00;99.90;;;;;;5111330;28;20227;-66
2024/02/09 13:12:02;;;;;;;0.80;0.80;;;-7.00;99.90;;;;;;5113444;28;20674;-66
2024/02/09 13:14:28;;;;;;;0.90;0.90;;;-6.90;99.90;;;;;;5113425;28;20738;-66
2024/02/09 13:16:54;;;;;;;0.90;0.90;;;-6.90;99.90;;;;;;5113181;28;20191;-70
2024/02/09 13:19:20;;;;;;;1.00;1.00;;;-6.90;99.90;;;;;;5112857;28;20196;-70
2024/02/09 13:21:46;;;;;;;0.90;0.90;;;-6.80;99.90;;;;;;5113116;28;20645;-70
2024/02/09 13:24:12;;;;;;;1.00;1.00;;;-6.80;99.90;;;;;;5113133;28;20199;-70
2024/02/09 13:26:40;;;;;;;1.00;1.00;;;-6.70;99.90;;;;;;5112796;28;20213;-70
2024/02/09 13:29:06;;;;;;;0.90;0.90;;;-6.70;99.90;;;;;;5113055;28;20225;-71
2024/02/09 13:31:38;;;;;;;1.30;1.20;;;-6.60;99.90;;;;;;5112787;28;20203;-69
2024/02/09 13:34:06;;;;;;;0.90;0.90;;;-6.60;99.90;;;;;;5112924;28;20239;-70
2024/02/09 13:36:32;;;;;;;0.90;0.90;;;-6.70;99.90;;;;;;5094572;28;20279;-70
2024/02/09 13:38:58;;;;;;;1.13;1.13;;;-6.80;99.90;;;;;;5094632;28;20198;-70
2024/02/09 13:41:24;;;;;;;0.80;0.80;;;-6.80;99.90;;;;;;5112890;28;20192;-70
2024/02/09 13:43:49;;;;;;;0.80;0.80;;;-6.70;99.90;;;;;;5112926;28;20256;-70
2024/02/09 13:46:16;;;;;;;0.90;0.90;;;-6.70;99.90;;;;;;5094608;28;20566;-70
2024/02/09 13:48:49;;;;;;;0.87;0.87;;;-6.60;99.90;;;;;;5112783;28;20287;-69
2024/02/09 13:51:17;;;;;;;0.90;0.90;;;-6.60;99.90;;;;;;5112891;28;20716;-69
2024/02/09 13:53:43;;;;;;;6.13;2.00;;;-6.50;99.90;;;;;;5112629;28;20667;-69
2024/02/09 13:56:09;;;;;;;0.90;0.90;;;-6.50;99.90;;;;;;5112851;28;20202;-70
2024/02/09 13:58:35;;;;;;;1.10;1.10;;;-6.50;99.90;;;;;;5107942;28;20199;-69
2024/02/09 14:01:01;;;;;;;1.00;1.00;;;-6.50;99.90;;;;;;5094406;28;20198;-69
2024/02/09 14:03:26;;;;;;;1.73;1.63;;;-6.50;99.90;;;;;;5116501;28;20316;-69
2024/02/09 14:05:52;;;;;;;1.00;1.00;;;-6.50;99.90;;;;;;5116726;28;20203;-69
2024/02/09 14:08:19;;;;;;;1.00;1.00;;;-6.50;99.90;;;;;;5116457;28;20244;-69
2024/02/09 14:10:46;;;;;;;1.23;1.23;;;-6.50;99.90;;;;;;5116817;28;20200;-69
2024/02/09 14:13:12;;;;;;;1.00;1.00;;;-6.60;99.90;;;;;;5116761;28;20655;-70
2024/02/09 14:15:38;;;;;;;0.83;0.83;;;-6.50;99.90;;;;;;5116466;28;20220;-69
2024/02/09 14:18:04;;;;;;;2.53;2.33;;;-6.50;99.90;;;;;;5116172;28;20184;-69
2024/02/09 14:20:30;;;;;;;0.90;0.90;;;-6.50;99.90;;;;;;5115721;28;20197;-70
2024/02/09 14:22:56;;;;;;;0.90;0.90;;;-6.50;99.90;;;;;;5096799;28;20663;-70
2024/02/09 14:25:22;;;;;;;0.90;0.90;;;-6.40;99.90;;;;;;5077848;28;20763;-66
2024/02/09 14:27:50;;;;;;;0.97;0.97;;;-6.30;99.90;;;;;;5096062;28;20287;-66
2024/02/09 14:30:16;;;;;;;1.00;1.00;;;-6.30;99.90;;;;;;5095994;28;20216;-66
2024/02/09 14:32:44;;;;;;;0.90;0.90;;;-6.30;99.90;;;;;;5095852;28;20667;-66
2024/02/09 14:35:10;;;;;;;1.00;1.00;;;-6.30;99.90;;;;;;5095773;28;20258;-65